createdAt,value
2023-01-08T00:02:24.555Z,5.35
2023-01-08T00:05:26.690Z,5.03
2023-01-08T00:08:36.437Z,5.30
2023-01-08T00:11:50.090Z,4.38
2023-01-08T00:14:50.655Z,5.05
2023-01-08T00:52:34.069Z,4.90
2023-01-08T00:55:37.793Z,4.82
2023-01-08T00:58:48.608Z,5.55
2023-01-08T01:01:49.932Z,5.60
2023-01-08T01:04:47.149Z,5.70
2023-01-08T01:07:50.432Z,4.93
2023-01-08T01:10:56.291Z,4.82
2023-01-08T01:14:07.952Z,4.85
2023-01-08T01:17:11.598Z,5.13
2023-01-08T01:20:11.850Z,4.72
2023-01-08T01:26:20.031Z,5.40
2023-01-08T01:29:21.689Z,5.47
2023-01-08T01:32:32.291Z,5.38
2023-01-08T01:35:32.665Z,5.10
2023-01-08T01:38:36.251Z,5.15
2023-01-08T01:41:56.184Z,5.85
2023-01-08T01:45:08.311Z,5.72
2023-01-08T01:48:30.134Z,5.95
2023-01-08T01:51:04.427Z,5.68
2023-01-08T01:54:05.783Z,5.22
2023-01-08T01:57:20.422Z,5.32
2023-01-08T02:00:17.495Z,4.15
2023-01-08T02:49:43.777Z,5.18
2023-01-08T03:23:56.495Z,6.30
2023-01-08T03:45:02.824Z,5.03
2023-01-08T03:51:12.955Z,4.53
2023-01-08T03:54:23.934Z,3.92
2023-01-08T04:00:28.329Z,4.35
2023-01-08T04:03:23.641Z,3.95
2023-01-08T04:06:34.949Z,4.50
2023-01-08T04:09:28.148Z,5.28
2023-01-08T04:12:33.460Z,4.88
2023-01-08T04:15:36.565Z,4.90
2023-01-08T04:18:42.505Z,4.88
2023-01-08T04:21:45.292Z,4.60
2023-01-08T04:27:44.256Z,4.43
2023-01-08T04:30:50.141Z,4.35
2023-01-08T04:33:57.875Z,4.75
2023-01-08T04:57:06.280Z,4.55
2023-01-08T05:00:14.222Z,4.35
2023-01-08T05:39:36.937Z,4.55
2023-01-08T05:45:43.008Z,4.20
2023-01-08T05:48:43.599Z,4.10
2023-01-08T05:51:47.979Z,4.72
2023-01-08T06:36:23.734Z,5.13
2023-01-08T08:20:06.919Z,4.60
2023-01-08T08:23:22.766Z,4.97
2023-01-08T08:26:17.484Z,4.72
2023-01-08T08:29:28.230Z,4.65
2023-01-08T08:32:30.692Z,4.75
2023-01-08T08:35:32.319Z,4.60
2023-01-08T08:41:33.518Z,5.20
2023-01-08T08:44:34.911Z,4.85
2023-01-08T08:47:34.223Z,4.50
2023-01-08T09:27:47.761Z,3.35
2023-01-08T09:30:56.645Z,3.53
2023-01-08T09:33:59.017Z,4.90
2023-01-08T09:40:02.605Z,4.40
2023-01-08T09:43:07.638Z,4.65
2023-01-08T09:46:08.587Z,4.25
2023-01-08T09:49:09.819Z,3.90
2023-01-08T09:52:21.038Z,6.75
2023-01-08T09:58:11.292Z,3.67
2023-01-08T10:04:35.046Z,4.05
2023-01-08T10:25:04.540Z,4.18
2023-01-08T10:31:27.724Z,4.00
2023-01-08T10:34:41.910Z,3.33
2023-01-08T10:38:03.844Z,3.47
2023-01-08T10:41:19.298Z,3.25
2023-01-08T10:47:51.744Z,3.30
2023-01-08T10:50:55.283Z,3.20
2023-01-08T11:28:41.807Z,3.42
2023-01-08T11:44:04.532Z,3.25
2023-01-08T11:47:34.642Z,4.10
2023-01-08T11:50:43.004Z,3.78
2023-01-08T11:53:57.806Z,3.80
2023-01-08T11:57:10.701Z,3.90
2023-01-08T12:00:36.950Z,4.63
2023-01-08T12:03:43.162Z,4.53
2023-01-08T12:07:09.010Z,4.45
2023-01-08T12:10:17.280Z,4.70
2023-01-08T12:13:33.886Z,5.43
2023-01-08T12:20:25.360Z,4.65
2023-01-08T12:50:16.995Z,4.68
2023-01-08T12:53:54.941Z,6.30
2023-01-08T12:57:33.063Z,4.97
2023-01-08T13:00:57.141Z,4.30
2023-01-08T13:04:11.005Z,4.90
2023-01-08T13:07:29.604Z,4.60
2023-01-08T13:14:15.286Z,4.07
2023-01-08T13:17:25.708Z,4.28
2023-01-08T13:20:28.451Z,4.03
2023-01-08T13:23:52.595Z,4.15
2023-01-08T13:30:05.477Z,5.22
2023-01-08T13:33:14.893Z,4.80
2023-01-08T13:36:32.487Z,5.97
2023-01-08T13:39:45.210Z,6.03
2023-01-08T14:01:07.371Z,6.03
2023-01-08T14:04:10.547Z,5.40
2023-01-08T14:07:14.494Z,5.63
2023-01-08T14:10:31.876Z,5.13
2023-01-08T14:17:52.203Z,5.38
2023-01-08T14:19:35.721Z,5.28
2023-01-08T14:22:47.839Z,6.00
2023-01-08T14:25:55.418Z,5.13
2023-01-08T14:29:00.544Z,5.80
2023-01-08T14:47:40.672Z,4.60
2023-01-08T14:50:57.320Z,4.90
2023-01-08T14:53:54.687Z,4.50
2023-01-08T14:57:14.641Z,5.55
2023-01-08T14:59:50.212Z,5.97
2023-01-08T15:03:19.080Z,4.88
2023-01-08T15:06:35.519Z,5.43
2023-01-08T15:12:49.139Z,6.28
2023-01-08T15:16:08.602Z,5.38
2023-01-08T15:19:44.142Z,5.95
2023-01-08T15:43:27.182Z,6.45
2023-01-08T15:46:38.393Z,10.00
2023-01-08T15:49:36.624Z,7.60
2023-01-08T15:52:43.003Z,7.07
2023-01-08T15:55:45.996Z,6.82
2023-01-08T15:58:58.918Z,6.50
2023-01-08T16:02:05.937Z,6.53
2023-01-08T16:04:59.512Z,7.15
2023-01-08T16:07:38.849Z,6.80
2023-01-08T16:10:41.786Z,6.53
2023-01-08T16:14:30.254Z,7.88
2023-01-08T16:16:45.033Z,8.32
2023-01-08T16:19:58.422Z,8.18
2023-01-08T16:22:51.008Z,6.55
2023-01-08T16:26:04.082Z,8.55
2023-01-08T16:29:07.419Z,8.52
2023-01-08T16:32:10.437Z,8.88
2023-01-08T16:35:18.617Z,8.02
2023-01-08T16:38:20.871Z,9.25
2023-01-08T16:41:27.490Z,8.63
2023-01-08T16:44:32.156Z,8.23
2023-01-08T16:47:32.289Z,9.15
2023-01-08T16:50:33.217Z,6.20
2023-01-08T16:53:27.460Z,5.10
2023-01-08T16:57:29.380Z,5.07
2023-01-08T16:59:36.488Z,5.75
2023-01-08T17:05:33.270Z,4.80
2023-01-08T17:08:51.007Z,4.53
2023-01-08T17:11:54.570Z,5.47
2023-01-08T17:14:49.679Z,5.63
2023-01-08T17:17:50.253Z,4.90
2023-01-08T17:21:04.566Z,4.85
2023-01-08T17:23:44.042Z,4.10
2023-01-08T17:26:48.236Z,3.55
2023-01-08T17:30:10.182Z,4.75
2023-01-08T17:33:14.644Z,4.45
2023-01-08T17:35:55.875Z,5.60
2023-01-08T17:39:06.751Z,4.85
2023-01-08T17:42:25.722Z,5.30
2023-01-08T17:45:24.883Z,5.85
2023-01-08T17:48:30.220Z,6.95
2023-01-08T17:51:36.941Z,6.90
2023-01-08T17:54:47.692Z,5.65
2023-01-08T17:58:08.746Z,4.00
2023-01-08T18:15:53.717Z,5.85
2023-01-08T18:18:58.217Z,5.72
2023-01-08T18:35:38.905Z,5.97
2023-01-08T18:42:14.284Z,7.43
2023-01-08T19:08:50.924Z,7.03
2023-01-08T19:11:52.221Z,6.47
2023-01-08T19:17:47.068Z,6.10
2023-01-08T19:49:41.677Z,5.97
2023-01-08T19:52:45.739Z,5.88
2023-01-08T19:55:57.756Z,6.10
2023-01-08T19:58:57.850Z,5.03
2023-01-08T20:02:02.740Z,4.30
2023-01-08T20:08:23.398Z,4.03
2023-01-08T20:11:25.028Z,3.53
2023-01-08T20:14:33.988Z,3.80
2023-01-08T20:17:16.589Z,4.18
2023-01-08T20:20:35.936Z,4.45
2023-01-08T20:23:42.680Z,4.45
2023-01-08T20:26:47.095Z,5.13
2023-01-08T20:29:51.321Z,4.57
2023-01-08T20:32:53.267Z,4.30
2023-01-08T20:35:46.882Z,4.18
2023-01-08T20:42:04.200Z,4.13
2023-01-08T20:44:56.416Z,4.88
2023-01-08T20:48:09.585Z,4.75
2023-01-08T21:13:42.517Z,4.82
2023-01-08T21:17:21.650Z,3.60
2023-01-08T21:20:17.057Z,4.22
2023-01-08T21:26:34.477Z,3.53
2023-01-08T21:29:44.233Z,4.03
2023-01-08T21:32:49.211Z,4.50
2023-01-08T21:35:53.375Z,4.22
2023-01-08T21:57:04.398Z,6.03
2023-01-08T22:34:25.556Z,10.15
2023-01-08T22:37:28.707Z,11.07
2023-01-08T22:43:25.206Z,9.65
2023-01-08T23:13:27.438Z,10.82
2023-01-08T23:19:31.871Z,9.10
2023-01-08T23:22:28.859Z,9.68
2023-01-08T23:25:31.897Z,7.82
2023-01-08T23:31:21.744Z,5.65
2023-01-08T23:34:29.035Z,6.82
2023-01-08T23:37:41.976Z,5.65
2023-01-08T23:40:36.158Z,5.78
2023-01-08T23:43:36.668Z,6.32
2023-01-08T23:46:45.856Z,5.85
2023-01-08T23:49:46.536Z,5.78
2023-01-08T23:52:53.874Z,5.30
2023-01-08T23:55:49.005Z,5.78
2023-01-08T23:58:47.938Z,5.40
